Airfield :
LOGIN :

Register | Disclaimer

   EN    FR    IT 

 










Legend :    VFR   Marginal VFR   IFR   Intensive IFR   Very Intensive IFR
Visi :
Ceiling :
>= 8 km
>= 3000ft
5 to 8 km
1000 to 3000 ft
1500m to 5 km
500 to 1000 ft
800 to 1500m
200 to 500 ft
< 800m
< 200 ft
Symbols :   Thunderstorms  Fog  Heavy snow  Heavy precipitations  Wind > 20 kt
SIGMETs :     Misc.  Thunderstorms  Icing  Turbulence  Mountain Waves  Volcanic Ashes







- Airport Elevation : 306 ft
- IATA code : EMA
- Download approach charts


EGNX - Nottingham East Midlands

CURRENT METAR :
  • 231350Z 07020KT 9999 SCT032 11/04 Q1019

EXPIRED METARs :
  • 231320Z 06019KT 9999 SCT031 11/03 Q1019
  • 231250Z 07019KT 9999 SCT034 11/03 Q1019
  • 231220Z 07020G30KT 9999 SCT030 11/04 Q1019
  • 231150Z 08019KT 9999 BKN025 11/05 Q1018
  • 231120Z 07018KT 9000 SCT016 11/06 Q1018

TAF TAF EGNX
Valid from the 23 at 12:00 until the 24 at 12:00 UTC


231059Z 2312/2412 05014KT 9999 SCT040
TEMPO 2312/2324 06017G27KT
PROB30
TEMPO 2400/2406 06015G25KT
PROB30
TEMPO 2403/2410 BKN012
ATIS : +44 1332 852 852 (ext 3201)
No reported NOTAMs for that airfield.
2 SIGMETs reported for the London FIR (EGTT) :
 
Severe turbulence
EGTT SIGMET 03 VALID 231215/231615 EGRR
EGTT LONDON FIR SEV TURB FCST S OF LINE N4931 W00800 - N5040 E00127 SFC/FL060 MOV N 05KT INTSF=
Severe turbulence
EGTT SIGMET 02 VALID 231215/231615 EGRR
EGTT LONDON FIR SEV TURB FCST NW OF LINE N5500 E00133 - N5237 W00530 FL240/330 MOV SE 05KT NC=



MET'MAP, your aeronautical weather chart ! - Copyright ORBIFLY December 2007 - Disclaimer

ORBIFLY MET'MAP TEAM :

Programming & Development : Alexandra Zaïnal
Concept & Development : Baudouin d'Aumeries
Co-Development & Prog : Marc-Olivier Méhu
Technical & hardware support : Manuel Goepfert

Contact : metmap@orbifly.com




SOURCES & CREDITS :

   NOAA